createdAt,value
2023-03-22T00:00:38.445Z,987.35
2023-03-22T00:01:38.146Z,987.43
2023-03-22T00:02:38.222Z,987.39
2023-03-22T00:03:38.202Z,987.37
2023-03-22T00:04:38.136Z,987.36
2023-03-22T00:05:38.112Z,987.39
2023-03-22T00:06:38.074Z,987.40
2023-03-22T00:07:38.059Z,987.36
2023-03-22T00:08:38.089Z,987.37
2023-03-22T00:09:38.080Z,987.35
2023-03-22T00:10:38.357Z,987.38
2023-03-22T00:11:38.004Z,987.37
2023-03-22T00:12:37.995Z,987.32
2023-03-22T00:13:37.986Z,987.35
2023-03-22T00:14:38.019Z,987.35
2023-03-22T00:15:37.965Z,987.34
2023-03-22T00:16:37.937Z,987.30
2023-03-22T00:17:37.931Z,987.32
2023-03-22T00:18:37.963Z,987.35
2023-03-22T00:19:37.933Z,987.40
2023-03-22T00:20:38.127Z,987.41
2023-03-22T00:21:37.882Z,987.37
2023-03-22T00:22:37.872Z,987.38
2023-03-22T00:23:37.863Z,987.35
2023-03-22T00:24:37.866Z,987.34
2023-03-22T00:25:37.832Z,987.37
2023-03-22T00:26:37.862Z,987.32
2023-03-22T00:27:37.824Z,987.30
2023-03-22T00:28:37.823Z,987.31
2023-03-22T00:29:37.774Z,987.27
2023-03-22T00:30:38.103Z,987.24
2023-03-22T00:31:37.823Z,987.21
2023-03-22T00:32:37.733Z,987.25
2023-03-22T00:33:37.817Z,987.25
2023-03-22T00:34:37.704Z,987.24
2023-03-22T00:35:37.787Z,987.23
2023-03-22T00:36:37.673Z,987.24
2023-03-22T00:37:37.683Z,987.23
2023-03-22T00:38:45.312Z,987.19
2023-03-22T00:39:38.646Z,987.18
2023-03-22T00:40:37.968Z,987.22
2023-03-22T00:41:37.633Z,987.17
2023-03-22T00:42:37.616Z,987.19
2023-03-22T00:43:37.606Z,987.18
2023-03-22T00:44:37.583Z,987.13
2023-03-22T00:45:37.617Z,987.13
2023-03-22T00:46:37.588Z,987.09
2023-03-22T00:47:37.580Z,987.16
2023-03-22T00:48:37.560Z,987.11
2023-03-22T00:49:37.513Z,987.12
2023-03-22T00:50:37.861Z,987.06
2023-03-22T00:51:37.508Z,987.12
2023-03-22T00:52:37.507Z,987.09
2023-03-22T00:53:37.477Z,987.10
2023-03-22T00:54:37.445Z,987.09
2023-03-22T00:55:37.483Z,987.12
2023-03-22T00:56:37.429Z,987.04
2023-03-22T00:57:37.460Z,987.11
2023-03-22T00:58:37.421Z,987.08
2023-03-22T00:59:37.402Z,987.04
2023-03-22T01:00:37.592Z,987.03
2023-03-22T01:01:37.418Z,986.97
2023-03-22T01:02:37.362Z,987.02
2023-03-22T01:03:37.356Z,987.02
2023-03-22T01:04:37.323Z,986.97
2023-03-22T01:05:37.321Z,987.01
2023-03-22T01:06:37.350Z,987.00
2023-03-22T01:07:37.282Z,987.00
2023-03-22T01:08:37.270Z,986.97
2023-03-22T01:09:37.267Z,986.99
2023-03-22T01:10:37.546Z,986.94
2023-03-22T01:11:37.219Z,986.95
2023-03-22T01:12:37.219Z,986.93
2023-03-22T01:13:37.201Z,986.90
2023-03-22T01:14:37.194Z,986.89
2023-03-22T01:15:37.203Z,986.82
2023-03-22T01:16:37.193Z,986.88
2023-03-22T01:17:37.162Z,986.87
2023-03-22T01:18:37.156Z,986.88
2023-03-22T01:19:37.116Z,986.84
2023-03-22T01:20:37.420Z,986.88
2023-03-22T01:21:37.099Z,986.84
2023-03-22T01:22:37.087Z,986.83
2023-03-22T01:23:37.150Z,986.83
2023-03-22T01:24:37.054Z,986.82
2023-03-22T01:25:37.082Z,986.81
2023-03-22T01:26:37.054Z,986.82
2023-03-22T01:27:37.026Z,986.82
2023-03-22T01:28:37.006Z,986.77
2023-03-22T01:29:37.029Z,986.76
2023-03-22T01:30:37.315Z,986.79
2023-03-22T01:31:37.031Z,986.76
2023-03-22T01:32:37.778Z,986.66
2023-03-22T01:33:36.938Z,986.73
2023-03-22T01:34:36.932Z,986.70
2023-03-22T01:35:36.983Z,986.69
2023-03-22T01:36:36.947Z,986.67
2023-03-22T01:37:36.893Z,986.68
2023-03-22T01:38:36.883Z,986.67
2023-03-22T01:39:36.867Z,986.63
2023-03-22T01:40:36.917Z,986.62
2023-03-22T01:41:36.840Z,986.66
2023-03-22T01:42:36.849Z,986.57
2023-03-22T01:43:36.818Z,986.57
2023-03-22T01:44:36.798Z,986.58
2023-03-22T01:45:36.894Z,986.50
2023-03-22T01:46:36.892Z,986.51
2023-03-22T01:47:36.756Z,986.57
2023-03-22T01:48:36.771Z,986.59
2023-03-22T01:49:36.729Z,986.59
2023-03-22T01:50:37.060Z,986.56
2023-03-22T01:51:36.711Z,986.59
2023-03-22T01:52:36.687Z,986.56
2023-03-22T01:53:36.686Z,986.49
2023-03-22T01:54:36.737Z,986.47
2023-03-22T01:55:36.679Z,986.52
2023-03-22T01:56:36.649Z,986.48
2023-03-22T01:57:36.632Z,986.46
2023-03-22T01:58:36.647Z,986.48
2023-03-22T01:59:36.611Z,986.50
2023-03-22T02:00:37.106Z,986.51
2023-03-22T02:01:36.599Z,986.49
2023-03-22T02:02:36.593Z,986.45
2023-03-22T02:03:36.564Z,986.45
2023-03-22T02:04:36.562Z,986.39
2023-03-22T02:05:36.548Z,986.47
2023-03-22T02:06:36.519Z,986.47
2023-03-22T02:07:36.498Z,986.47
2023-03-22T02:08:36.490Z,986.46
2023-03-22T02:09:36.476Z,986.47
2023-03-22T02:10:36.685Z,986.41
2023-03-22T02:11:36.457Z,986.39
2023-03-22T02:12:36.461Z,986.37
2023-03-22T02:13:36.444Z,986.39
2023-03-22T02:14:36.408Z,986.39
2023-03-22T02:15:36.489Z,986.38
2023-03-22T02:16:36.403Z,986.37
2023-03-22T02:17:36.412Z,986.36
2023-03-22T02:18:36.356Z,986.38
2023-03-22T02:19:36.370Z,986.37
2023-03-22T02:20:36.431Z,986.38
2023-03-22T02:21:36.370Z,986.39
2023-03-22T02:22:36.399Z,986.35
2023-03-22T02:23:36.300Z,986.32
2023-03-22T02:24:36.285Z,986.38
2023-03-22T02:25:36.318Z,986.36
2023-03-22T02:26:36.247Z,986.30
2023-03-22T02:27:36.261Z,986.29
2023-03-22T02:28:36.232Z,986.28
2023-03-22T02:29:36.232Z,986.31
2023-03-22T02:30:36.413Z,986.31
2023-03-22T02:31:36.299Z,986.33
2023-03-22T02:32:36.194Z,986.32
2023-03-22T02:33:36.175Z,986.33
2023-03-22T02:34:36.163Z,986.34
2023-03-22T02:35:36.203Z,986.36
2023-03-22T02:36:36.123Z,986.32
2023-03-22T02:37:36.180Z,986.33
2023-03-22T02:38:36.095Z,986.32
2023-03-22T02:39:36.085Z,986.31
2023-03-22T02:40:36.122Z,986.32
2023-03-22T02:41:36.069Z,986.28
2023-03-22T02:42:36.078Z,986.31
2023-03-22T02:43:36.045Z,986.33
2023-03-22T02:44:36.020Z,986.33
2023-03-22T02:45:36.048Z,986.32
2023-03-22T02:46:36.030Z,986.31
2023-03-22T02:47:35.982Z,986.31
2023-03-22T02:48:35.971Z,986.32
2023-03-22T02:49:35.952Z,986.27
2023-03-22T02:50:35.963Z,986.29
2023-03-22T02:51:35.950Z,986.28
2023-03-22T02:52:35.930Z,986.27
2023-03-22T02:53:35.912Z,986.23
2023-03-22T02:54:35.892Z,986.20
2023-03-22T02:55:35.902Z,986.21
2023-03-22T02:56:35.865Z,986.23
2023-03-22T02:57:35.856Z,986.20
2023-03-22T02:58:35.840Z,986.20
2023-03-22T02:59:35.834Z,986.21
2023-03-22T03:00:35.856Z,986.18
2023-03-22T03:01:35.819Z,986.17
2023-03-22T03:02:35.791Z,986.20
2023-03-22T03:03:35.780Z,986.20
2023-03-22T03:04:35.769Z,986.19
2023-03-22T03:05:35.858Z,986.17
2023-03-22T03:06:35.760Z,986.20
2023-03-22T03:07:35.739Z,986.18
2023-03-22T03:08:35.701Z,986.20
2023-03-22T03:09:35.698Z,986.15
2023-03-22T03:10:35.701Z,986.11
2023-03-22T03:11:35.671Z,986.12
2023-03-22T03:12:35.651Z,986.13
2023-03-22T03:13:35.649Z,986.11
2023-03-22T03:14:35.625Z,986.13
2023-03-22T03:15:35.656Z,986.09
2023-03-22T03:16:35.606Z,986.15
2023-03-22T03:17:35.592Z,986.12
2023-03-22T03:18:35.582Z,986.09
2023-03-22T03:19:35.561Z,986.13
2023-03-22T03:20:35.578Z,986.08
2023-03-22T03:21:35.556Z,986.13
2023-03-22T03:22:35.525Z,986.09
2023-03-22T03:23:35.526Z,986.06
2023-03-22T03:24:35.490Z,986.03
2023-03-22T03:25:35.519Z,986.05
2023-03-22T03:26:35.496Z,986.05
2023-03-22T03:27:35.460Z,986.01
2023-03-22T03:28:35.442Z,985.98
2023-03-22T03:29:35.489Z,986.00
2023-03-22T03:30:35.460Z,985.95
2023-03-22T03:31:35.453Z,985.99
2023-03-22T03:32:35.397Z,985.98
2023-03-22T03:33:35.377Z,985.98
2023-03-22T03:34:35.448Z,985.94
2023-03-22T03:35:35.401Z,985.95
2023-03-22T03:36:35.349Z,985.95
2023-03-22T03:37:35.336Z,985.99
2023-03-22T03:38:35.348Z,985.99
2023-03-22T03:39:35.324Z,985.92
2023-03-22T03:40:35.322Z,985.99
2023-03-22T03:41:35.288Z,986.02
2023-03-22T03:42:35.276Z,985.96
2023-03-22T03:43:35.249Z,985.98
2023-03-22T03:44:35.557Z,985.98
2023-03-22T03:45:35.332Z,985.91
2023-03-22T03:46:35.208Z,985.97
2023-03-22T03:47:35.198Z,985.94
2023-03-22T03:48:35.200Z,985.92
2023-03-22T03:49:35.183Z,985.92
2023-03-22T03:50:35.213Z,985.89
2023-03-22T03:51:35.954Z,985.88
2023-03-22T03:52:35.150Z,985.86
2023-03-22T03:53:35.118Z,985.90
2023-03-22T03:54:35.108Z,985.92
2023-03-22T03:55:35.116Z,985.87
2023-03-22T03:56:35.123Z,985.85
2023-03-22T03:57:35.113Z,985.81
2023-03-22T03:58:35.068Z,985.82
2023-03-22T03:59:35.049Z,985.78
2023-03-22T04:00:35.038Z,985.78
2023-03-22T04:01:35.819Z,985.74
2023-03-22T04:02:35.083Z,985.73
2023-03-22T04:03:35.018Z,985.77
2023-03-22T04:04:35.061Z,985.77
2023-03-22T04:05:34.993Z,985.79
2023-03-22T04:06:35.004Z,985.69
2023-03-22T04:07:34.947Z,985.75
2023-03-22T04:08:34.931Z,985.74
2023-03-22T04:09:34.927Z,985.73
2023-03-22T04:10:34.921Z,985.67
2023-03-22T04:11:34.927Z,985.68
2023-03-22T04:12:34.907Z,985.68
2023-03-22T04:13:34.895Z,985.73
2023-03-22T04:14:34.850Z,985.67
2023-03-22T04:15:34.851Z,985.69
2023-03-22T04:16:34.901Z,985.68
2023-03-22T04:17:34.859Z,985.64
2023-03-22T04:18:34.816Z,985.66
2023-03-22T04:19:34.813Z,985.68
2023-03-22T04:20:34.793Z,985.59
2023-03-22T04:21:34.799Z,985.64
2023-03-22T04:22:34.760Z,985.61
2023-03-22T04:23:34.762Z,985.56
2023-03-22T04:24:34.718Z,985.52
2023-03-22T04:25:34.783Z,985.54
2023-03-22T04:26:34.732Z,985.54
2023-03-22T04:27:34.690Z,985.60
2023-03-22T04:28:34.683Z,985.52
2023-03-22T04:29:34.676Z,985.56
2023-03-22T04:30:34.652Z,985.58
2023-03-22T04:31:34.666Z,985.55
2023-03-22T04:32:34.626Z,985.56
2023-03-22T04:33:35.396Z,985.56
2023-03-22T04:34:34.595Z,985.54
2023-03-22T04:35:34.629Z,985.51
2023-03-22T04:36:34.595Z,985.51
2023-03-22T04:37:34.574Z,985.53
2023-03-22T04:38:34.546Z,985.57
2023-03-22T04:39:34.558Z,985.53
2023-03-22T04:40:34.507Z,985.50
2023-03-22T04:41:34.545Z,985.55
2023-03-22T04:42:34.487Z,985.54
2023-03-22T04:43:34.495Z,985.52
2023-03-22T04:44:34.454Z,985.55
2023-03-22T04:45:34.474Z,985.52
2023-03-22T04:46:34.491Z,985.53
2023-03-22T04:47:34.464Z,985.55
2023-03-22T04:48:34.404Z,985.57
2023-03-22T04:49:34.407Z,985.61
2023-03-22T04:50:34.394Z,985.63
2023-03-22T04:51:34.366Z,985.63
2023-03-22T04:52:34.364Z,985.61
2023-03-22T04:53:34.353Z,985.64
2023-03-22T04:54:34.344Z,985.64
2023-03-22T04:55:34.295Z,985.64
2023-03-22T04:56:34.286Z,985.62
2023-03-22T04:57:34.293Z,985.63
2023-03-22T04:58:34.271Z,985.54
2023-03-22T04:59:34.276Z,985.57
2023-03-22T05:00:34.249Z,985.58
2023-03-22T05:01:34.231Z,985.60
2023-03-22T05:02:34.207Z,985.58
2023-03-22T05:03:34.174Z,985.56
2023-03-22T05:04:34.162Z,985.55
2023-03-22T05:05:34.320Z,985.57
2023-03-22T05:06:34.155Z,985.51
2023-03-22T05:07:34.114Z,985.51
2023-03-22T05:08:34.102Z,985.62
2023-03-22T05:09:34.089Z,985.60
2023-03-22T05:10:34.070Z,985.58
2023-03-22T05:11:34.102Z,985.60
2023-03-22T05:12:34.060Z,985.60
2023-03-22T05:13:34.039Z,985.56
2023-03-22T05:14:34.034Z,985.52
2023-03-22T05:15:34.032Z,985.50
2023-03-22T05:16:34.039Z,985.51
2023-03-22T05:17:33.989Z,985.53
2023-03-22T05:18:33.968Z,985.51
2023-03-22T05:19:33.951Z,985.56
2023-03-22T05:20:33.946Z,985.51
2023-03-22T05:21:33.961Z,985.55
2023-03-22T05:22:33.922Z,985.53
2023-03-22T05:23:33.905Z,985.55
2023-03-22T05:24:33.881Z,985.52
2023-03-22T05:25:33.871Z,985.54
2023-03-22T05:26:33.900Z,985.54
2023-03-22T05:27:33.850Z,985.51
2023-03-22T05:28:33.837Z,985.52
2023-03-22T05:29:33.820Z,985.50
2023-03-22T05:30:33.807Z,985.50
2023-03-22T05:31:33.871Z,985.50
2023-03-22T05:32:33.789Z,985.46
2023-03-22T05:33:33.781Z,985.55
2023-03-22T05:34:33.766Z,985.56
2023-03-22T05:35:33.740Z,985.54
2023-03-22T05:36:37.839Z,985.57
2023-03-22T05:37:33.722Z,985.58
2023-03-22T05:38:33.716Z,985.56
2023-03-22T05:39:33.692Z,985.53
2023-03-22T05:40:33.690Z,985.53
2023-03-22T05:41:36.496Z,985.51
2023-03-22T05:42:33.672Z,985.51
2023-03-22T05:43:33.653Z,985.51
2023-03-22T05:44:33.645Z,985.49
2023-03-22T05:45:33.626Z,985.49
2023-03-22T05:46:33.733Z,985.45
2023-03-22T05:47:33.582Z,985.46
2023-03-22T05:48:33.588Z,985.44
2023-03-22T05:49:34.410Z,985.46
2023-03-22T05:50:33.572Z,985.46
2023-03-22T05:51:33.593Z,985.43
2023-03-22T05:52:33.527Z,985.50
2023-03-22T05:53:33.526Z,985.42
2023-03-22T05:54:33.531Z,985.43
2023-03-22T05:55:33.489Z,985.37
2023-03-22T05:56:33.534Z,985.39
2023-03-22T05:57:33.530Z,985.35
2023-03-22T05:58:33.449Z,985.39
2023-03-22T05:59:33.442Z,985.36
2023-03-22T06:00:33.433Z,985.39
2023-03-22T06:01:33.534Z,985.34
2023-03-22T06:02:33.412Z,985.40
2023-03-22T06:03:33.454Z,985.39
2023-03-22T06:04:33.374Z,985.34
2023-03-22T06:05:33.369Z,985.34
2023-03-22T06:06:33.396Z,985.34
2023-03-22T06:07:33.337Z,985.31
2023-03-22T06:08:33.332Z,985.31
2023-03-22T06:09:33.315Z,985.31
2023-03-22T06:10:33.294Z,985.30
2023-03-22T06:11:33.302Z,985.32
2023-03-22T06:12:33.283Z,985.30
2023-03-22T06:13:33.264Z,985.29
2023-03-22T06:14:33.253Z,985.26
2023-03-22T06:15:33.223Z,985.26
2023-03-22T06:16:33.337Z,985.20
2023-03-22T06:17:33.222Z,985.26
2023-03-22T06:18:33.202Z,985.25
2023-03-22T06:19:33.229Z,985.34
2023-03-22T06:20:33.176Z,985.25
2023-03-22T06:21:33.184Z,985.36
2023-03-22T06:22:33.143Z,985.35
2023-03-22T06:23:33.121Z,985.27
2023-03-22T06:24:33.126Z,985.32
2023-03-22T06:25:33.106Z,985.34
2023-03-22T06:26:33.090Z,985.36
2023-03-22T06:27:33.174Z,985.29
2023-03-22T06:28:33.062Z,985.31
2023-03-22T06:29:33.045Z,985.31
2023-03-22T06:30:33.048Z,985.30
2023-03-22T06:31:33.017Z,985.27
2023-03-22T06:32:33.036Z,985.30
2023-03-22T06:33:32.987Z,985.26
2023-03-22T06:34:32.976Z,985.29
2023-03-22T06:35:33.056Z,985.20
2023-03-22T06:36:32.954Z,985.22
2023-03-22T06:37:32.972Z,985.27
2023-03-22T06:38:32.958Z,985.32
2023-03-22T06:39:32.925Z,985.26
2023-03-22T06:40:32.905Z,985.28
2023-03-22T06:41:32.888Z,985.30
2023-03-22T06:42:32.921Z,985.28
2023-03-22T06:43:32.874Z,985.30
2023-03-22T06:44:32.861Z,985.26
2023-03-22T06:45:32.830Z,985.29
2023-03-22T06:46:32.863Z,985.35
2023-03-22T06:47:32.879Z,985.26
2023-03-22T06:48:32.789Z,985.31
2023-03-22T06:49:32.770Z,985.29
2023-03-22T06:50:32.768Z,985.29
2023-03-22T06:51:33.072Z,985.32
2023-03-22T06:52:32.771Z,985.32
2023-03-22T06:53:32.734Z,985.31
2023-03-22T06:54:37.001Z,985.29
2023-03-22T06:55:36.935Z,985.29
2023-03-22T06:56:32.693Z,985.28
2023-03-22T06:57:32.699Z,985.23
2023-03-22T06:58:33.470Z,985.23
2023-03-22T06:59:32.640Z,985.18
2023-03-22T07:00:32.635Z,985.28
2023-03-22T07:01:32.656Z,985.28
2023-03-22T07:02:32.660Z,985.26
2023-03-22T07:03:32.589Z,985.18
2023-03-22T07:04:32.656Z,985.22
2023-03-22T07:05:32.587Z,985.22
2023-03-22T07:06:32.583Z,985.22
2023-03-22T07:07:32.565Z,985.26
2023-03-22T07:08:32.538Z,985.17
2023-03-22T07:09:32.520Z,985.22
2023-03-22T07:10:32.567Z,985.17
2023-03-22T07:11:32.488Z,985.14
2023-03-22T07:12:32.529Z,985.18
2023-03-22T07:13:32.469Z,985.16
2023-03-22T07:14:33.434Z,985.10
2023-03-22T07:15:32.488Z,985.05
2023-03-22T07:16:32.488Z,985.08
2023-03-22T07:17:32.451Z,985.07
2023-03-22T07:18:32.399Z,985.02
2023-03-22T07:19:32.429Z,985.06
2023-03-22T07:20:33.249Z,985.08
2023-03-22T07:21:32.502Z,985.10
2023-03-22T07:22:32.386Z,985.10
2023-03-22T07:23:32.338Z,985.10
2023-03-22T07:24:32.334Z,985.12
2023-03-22T07:25:32.442Z,985.06
2023-03-22T07:26:32.491Z,985.04
2023-03-22T07:27:32.779Z,984.99
2023-03-22T07:28:32.364Z,985.01
2023-03-22T07:29:32.269Z,984.97
2023-03-22T07:30:32.295Z,985.02
2023-03-22T07:31:32.289Z,985.02
2023-03-22T07:32:32.487Z,985.02
2023-03-22T07:33:32.213Z,985.03
2023-03-22T07:34:32.307Z,985.02
2023-03-22T07:35:32.189Z,985.01
2023-03-22T07:36:32.170Z,985.02
2023-03-22T07:37:32.417Z,985.02
2023-03-22T07:38:32.260Z,984.99
2023-03-22T07:39:32.137Z,984.96
2023-03-22T07:40:32.128Z,984.99
2023-03-22T07:41:32.106Z,984.93
2023-03-22T07:42:32.123Z,984.93
2023-03-22T07:43:34.052Z,984.92
2023-03-22T07:44:33.167Z,984.90
2023-03-22T07:45:32.808Z,984.87
2023-03-22T07:46:32.096Z,984.81
2023-03-22T07:47:40.734Z,984.87
2023-03-22T07:48:33.033Z,984.89
2023-03-22T07:49:32.022Z,984.85
2023-03-22T07:50:32.098Z,984.85
2023-03-22T07:51:32.004Z,984.84
2023-03-22T07:52:31.984Z,984.82
2023-03-22T07:53:32.085Z,984.80
2023-03-22T07:54:34.174Z,984.72
2023-03-22T07:55:31.993Z,984.77
2023-03-22T07:56:31.983Z,984.80
2023-03-22T07:57:31.962Z,984.73
2023-03-22T07:58:31.909Z,984.75
2023-03-22T07:59:33.205Z,984.75
2023-03-22T08:00:31.870Z,984.71
2023-03-22T08:01:31.856Z,984.68
2023-03-22T08:02:32.038Z,984.77
2023-03-22T08:03:31.862Z,984.67
2023-03-22T08:04:31.880Z,984.67
2023-03-22T08:05:31.820Z,984.70
2023-03-22T08:06:32.036Z,984.67
2023-03-22T08:07:31.787Z,984.65
2023-03-22T08:08:32.727Z,984.61
2023-03-22T08:09:31.745Z,984.71
2023-03-22T08:10:31.748Z,984.68
2023-03-22T08:11:31.787Z,984.63
2023-03-22T08:12:31.726Z,984.62
2023-03-22T08:13:31.756Z,984.58
2023-03-22T08:14:37.253Z,984.54
2023-03-22T08:15:31.663Z,984.60
2023-03-22T08:16:31.734Z,984.58
2023-03-22T08:17:31.679Z,984.61
2023-03-22T08:18:31.636Z,984.62
2023-03-22T08:19:31.613Z,984.58
2023-03-22T08:20:31.608Z,984.65
2023-03-22T08:21:32.215Z,984.61
2023-03-22T08:22:31.617Z,984.59
2023-03-22T08:23:41.321Z,984.63
2023-03-22T08:24:33.305Z,984.61
2023-03-22T08:25:31.537Z,984.61
2023-03-22T08:26:31.526Z,984.53
2023-03-22T08:27:31.536Z,984.59
2023-03-22T08:28:31.519Z,984.57
2023-03-22T08:29:31.500Z,984.56
2023-03-22T08:30:31.547Z,984.57
2023-03-22T08:31:31.544Z,984.49
2023-03-22T08:32:31.478Z,984.54
2023-03-22T08:33:31.435Z,984.55
2023-03-22T08:34:31.504Z,984.53
2023-03-22T08:35:31.437Z,984.56
2023-03-22T08:36:31.406Z,984.55
2023-03-22T08:37:32.268Z,984.48
2023-03-22T08:38:31.444Z,984.48
2023-03-22T08:39:31.386Z,984.51
2023-03-22T08:40:31.376Z,984.47
2023-03-22T08:41:31.318Z,984.49
2023-03-22T08:42:31.321Z,984.55
2023-03-22T08:43:31.299Z,984.51
2023-03-22T08:44:31.302Z,984.44
2023-03-22T08:45:31.316Z,984.51
2023-03-22T08:46:31.306Z,984.48
2023-03-22T08:47:31.273Z,984.48
2023-03-22T08:48:31.236Z,984.50
2023-03-22T08:49:31.223Z,984.52
2023-03-22T08:50:31.222Z,984.54
2023-03-22T08:51:31.205Z,984.60
2023-03-22T08:52:31.204Z,984.60
2023-03-22T08:53:31.224Z,984.58
2023-03-22T08:54:31.172Z,984.56
2023-03-22T08:55:31.152Z,984.55
2023-03-22T08:56:31.132Z,984.51
2023-03-22T08:57:31.428Z,984.56
2023-03-22T08:58:31.115Z,984.52
2023-03-22T08:59:31.084Z,984.50
2023-03-22T09:00:45.685Z,984.47
2023-03-22T09:01:32.192Z,984.49
2023-03-22T09:02:31.107Z,984.47
2023-03-22T09:03:31.431Z,984.41
2023-03-22T09:04:31.031Z,984.34
2023-03-22T09:05:31.052Z,984.36
2023-03-22T09:06:31.002Z,984.36
2023-03-22T09:07:31.002Z,984.33
2023-03-22T09:08:30.986Z,984.32
2023-03-22T09:09:30.976Z,984.37
2023-03-22T09:10:30.942Z,984.31
2023-03-22T09:11:30.932Z,984.33
2023-03-22T09:12:30.973Z,984.24
2023-03-22T09:13:30.906Z,984.28
2023-03-22T09:14:30.904Z,984.26
2023-03-22T09:15:30.877Z,984.26
2023-03-22T09:16:30.944Z,984.25
2023-03-22T09:17:30.965Z,984.24
2023-03-22T09:18:30.861Z,984.27
2023-03-22T09:19:30.861Z,984.24
2023-03-22T09:20:30.821Z,984.22
2023-03-22T09:21:30.790Z,984.23
2023-03-22T09:22:30.852Z,984.23
2023-03-22T09:23:30.794Z,984.20
2023-03-22T09:24:30.910Z,984.12
2023-03-22T09:25:30.740Z,984.12
2023-03-22T09:26:30.742Z,984.11
2023-03-22T09:27:30.867Z,984.14
2023-03-22T09:28:30.770Z,984.04
2023-03-22T09:29:30.710Z,984.09
2023-03-22T09:30:30.685Z,984.04
2023-03-22T09:31:30.877Z,984.08
2023-03-22T09:32:30.851Z,984.11
2023-03-22T09:33:30.660Z,984.09
2023-03-22T09:34:30.646Z,984.08
2023-03-22T09:35:30.682Z,983.95
2023-03-22T09:36:30.722Z,984.00
2023-03-22T09:37:30.666Z,984.03
2023-03-22T09:38:30.572Z,983.98
2023-03-22T09:39:30.563Z,983.99
2023-03-22T09:40:30.563Z,983.96
2023-03-22T09:41:30.600Z,983.96
2023-03-22T09:42:30.521Z,983.93
2023-03-22T09:43:33.071Z,983.96
2023-03-22T09:44:30.497Z,983.96
2023-03-22T09:45:30.490Z,983.90
2023-03-22T09:46:30.536Z,984.04
2023-03-22T09:47:42.286Z,983.97
2023-03-22T09:48:31.568Z,984.02
2023-03-22T09:49:30.449Z,983.98
2023-03-22T09:50:30.427Z,983.99
2023-03-22T09:51:30.413Z,983.94
2023-03-22T09:52:30.429Z,983.85
2023-03-22T09:53:30.418Z,983.89
2023-03-22T09:54:30.370Z,983.86
2023-03-22T09:55:30.437Z,984.01
2023-03-22T09:56:30.347Z,983.93
2023-03-22T09:57:30.329Z,984.02
2023-03-22T09:58:30.389Z,983.95
2023-03-22T09:59:30.341Z,983.94
2023-03-22T10:00:31.307Z,983.87
2023-03-22T10:01:30.554Z,983.89
2023-03-22T10:02:30.434Z,983.84
2023-03-22T10:03:30.351Z,983.89
2023-03-22T10:04:30.263Z,983.83
2023-03-22T10:05:30.288Z,983.93
2023-03-22T10:06:30.309Z,983.86
2023-03-22T10:07:30.192Z,983.80
2023-03-22T10:08:30.243Z,983.78
2023-03-22T10:09:31.018Z,983.77
2023-03-22T10:10:30.162Z,983.74
2023-03-22T10:11:30.292Z,983.80
2023-03-22T10:12:30.136Z,983.78
2023-03-22T10:13:30.391Z,983.76
2023-03-22T10:14:30.107Z,983.74
2023-03-22T10:15:30.131Z,983.84
2023-03-22T10:16:30.184Z,983.70
2023-03-22T10:17:30.112Z,983.75
2023-03-22T10:18:30.085Z,983.66
2023-03-22T10:19:30.044Z,983.72
2023-03-22T10:20:30.084Z,983.64
2023-03-22T10:21:30.020Z,983.64
2023-03-22T10:22:30.069Z,983.68
2023-03-22T10:23:30.023Z,983.63
2023-03-22T10:24:29.975Z,983.72
2023-03-22T10:25:29.972Z,983.64
2023-03-22T10:26:29.951Z,983.75
2023-03-22T10:27:29.942Z,983.83
2023-03-22T10:28:29.976Z,983.75
2023-03-22T10:29:29.912Z,983.72
2023-03-22T10:30:29.901Z,983.82
2023-03-22T10:31:29.902Z,983.64
2023-03-22T10:32:29.862Z,983.68
2023-03-22T10:33:30.023Z,983.57
2023-03-22T10:34:29.892Z,983.56
2023-03-22T10:35:29.855Z,983.52
2023-03-22T10:36:29.814Z,983.56
2023-03-22T10:37:30.052Z,983.76
2023-03-22T10:38:29.832Z,983.76
2023-03-22T10:39:29.773Z,983.77
2023-03-22T10:40:29.779Z,983.71
2023-03-22T10:41:29.766Z,983.70
2023-03-22T10:42:29.738Z,983.69
2023-03-22T10:43:29.753Z,983.67
2023-03-22T10:44:29.710Z,983.55
2023-03-22T10:45:29.808Z,983.54
2023-03-22T10:46:29.758Z,983.57
2023-03-22T10:47:29.676Z,983.56
2023-03-22T10:48:29.971Z,983.53
2023-03-22T10:49:29.671Z,983.52
2023-03-22T10:50:29.657Z,983.57
2023-03-22T10:51:29.759Z,983.54
2023-03-22T10:52:29.609Z,983.60
2023-03-22T10:53:29.748Z,983.54
2023-03-22T10:54:29.598Z,983.44
2023-03-22T10:55:29.667Z,983.45
2023-03-22T10:56:29.558Z,983.50
2023-03-22T10:57:29.568Z,983.50
2023-03-22T10:58:29.572Z,983.59
2023-03-22T10:59:29.526Z,983.56
2023-03-22T11:00:29.524Z,983.61
2023-03-22T11:01:29.587Z,983.51
2023-03-22T11:02:29.638Z,983.45
2023-03-22T11:03:29.506Z,983.47
2023-03-22T11:04:29.472Z,983.50
2023-03-22T11:05:29.451Z,983.57
2023-03-22T11:06:29.431Z,983.44
2023-03-22T11:07:29.443Z,983.45
2023-03-22T11:08:29.611Z,983.40
2023-03-22T11:09:29.430Z,983.46
2023-03-22T11:10:29.409Z,983.49
2023-03-22T11:11:29.372Z,983.45
2023-03-22T11:12:29.448Z,983.46
2023-03-22T11:13:30.271Z,983.41
2023-03-22T11:14:29.321Z,983.59
2023-03-22T11:15:29.368Z,983.44
2023-03-22T11:16:29.397Z,983.38
2023-03-22T11:17:29.299Z,983.43
2023-03-22T11:18:29.350Z,983.44
2023-03-22T11:19:29.265Z,983.52
2023-03-22T11:20:30.644Z,983.48
2023-03-22T11:21:29.257Z,983.48
2023-03-22T11:22:29.227Z,983.44
2023-03-22T11:23:29.496Z,983.38
2023-03-22T11:24:29.192Z,983.40
2023-03-22T11:25:29.385Z,983.42
2023-03-22T11:26:29.228Z,983.45
2023-03-22T11:27:29.215Z,983.41
2023-03-22T11:28:29.288Z,983.43
2023-03-22T11:29:32.462Z,983.41
2023-03-22T11:30:29.148Z,983.39
2023-03-22T11:31:29.245Z,983.40
2023-03-22T11:32:29.265Z,983.46
2023-03-22T11:33:29.117Z,983.47
2023-03-22T11:34:29.176Z,983.46
2023-03-22T11:35:29.178Z,983.47
2023-03-22T11:36:29.049Z,983.52
2023-03-22T11:37:29.101Z,983.53
2023-03-22T11:38:29.042Z,983.58
2023-03-22T11:39:29.010Z,983.57
2023-03-22T11:40:28.989Z,983.52
2023-03-22T11:41:28.980Z,983.55
2023-03-22T11:42:28.978Z,983.51
2023-03-22T11:43:28.990Z,983.54
2023-03-22T11:44:28.947Z,983.58
2023-03-22T11:45:28.944Z,983.52
2023-03-22T11:46:28.962Z,983.49
2023-03-22T11:47:28.941Z,983.60
2023-03-22T11:48:28.986Z,983.53
2023-03-22T11:49:28.874Z,983.61
2023-03-22T11:50:28.855Z,983.56
2023-03-22T11:51:28.854Z,983.50
2023-03-22T11:52:28.854Z,983.44
2023-03-22T11:53:28.914Z,983.47
2023-03-22T11:54:28.865Z,983.53
2023-03-22T11:55:29.737Z,983.52
2023-03-22T11:56:28.787Z,983.54
2023-03-22T11:57:28.774Z,983.45
2023-03-22T11:58:28.801Z,983.50
2023-03-22T11:59:28.763Z,983.43
2023-03-22T12:00:28.729Z,983.45
2023-03-22T12:01:28.905Z,983.51
2023-03-22T12:02:28.839Z,983.48
2023-03-22T12:03:28.816Z,983.57
2023-03-22T12:04:28.797Z,983.47
2023-03-22T12:05:28.773Z,983.52
2023-03-22T12:06:28.885Z,983.47
2023-03-22T12:07:28.673Z,983.39
2023-03-22T12:08:28.666Z,983.40
2023-03-22T12:09:28.664Z,983.42
2023-03-22T12:10:28.598Z,983.36
2023-03-22T12:11:28.717Z,983.42
2023-03-22T12:12:28.604Z,983.45
2023-03-22T12:13:28.725Z,983.50
2023-03-22T12:14:28.596Z,983.52
2023-03-22T12:15:28.609Z,983.41
2023-03-22T12:16:28.606Z,983.40
2023-03-22T12:17:28.594Z,983.41
2023-03-22T12:18:28.563Z,983.55
2023-03-22T12:19:28.488Z,983.54
2023-03-22T12:20:28.549Z,983.47
2023-03-22T12:21:28.465Z,983.48
2023-03-22T12:22:28.454Z,983.47
2023-03-22T12:23:28.469Z,983.48
2023-03-22T12:24:28.451Z,983.44
2023-03-22T12:25:29.129Z,983.44
2023-03-22T12:26:28.409Z,983.47
2023-03-22T12:27:28.474Z,983.49
2023-03-22T12:28:28.415Z,983.41